ADDS METAR Data INFO
IDs: Format: Raw Decoded Include TAF

Data at: 0210 UTC 20 Sep 2017

KMFE 200153Z 14013KT 10SM CLR 31/23 A2985 RMK AO2 SLP107 T03110233
KMFE 200053Z 14015KT 10SM CLR 32/22 A2981 RMK AO2 SLP093 T03220222
KMFE 192353Z 13019G25KT 10SM CLR 34/22 A2979 RMK AO2 SLP085 T03390217 10383 20339 55003
KMFE 192253Z 14012G21KT 10SM CLR 36/21 A2978 RMK AO2 SLP084 T03610211
KMFE 192153Z 14016G20KT 10SM FEW060 FEW075 37/21 A2979 RMK AO2 SLP084 T03670211
KMFE 192053Z 15013G19KT 10SM FEW055 37/22 A2980 RMK AO2 SLP087 T03720222 56032
KMFE 191953Z 15015KT 10SM FEW049 FEW065 37/22 A2983 RMK AO2 SLP097 T03720222
KMFE 191853Z 15015G21KT 10SM SCT048 36/23 A2986 RMK AO2 SLP109 T03610228
KMFE 191753Z 16009G17KT 130V200 10SM BKN046 36/23 A2989 RMK AO2 SLP121 T03610228 10361 20267 58013
KMFE 191653Z 16012G16KT 10SM FEW037 34/23 A2992 RMK AO2 SLP129 T03440233
KMFE 191603Z 15013G18KT 10SM SCT028 BKN037 33/24 A2993 RMK AO2 T03280239
KMFE 191553Z 16011G15KT 10SM BKN028 32/24 A2993 RMK AO2 SLP134 T03170244
KMFE 191550Z 17008KT 10SM BKN028 32/24 A2993 RMK AO2
KMFE 191453Z 14013KT 10SM SCT019 31/24 A2993 RMK AO2 SLP133 T03110244 51008
KMFE 191353Z 15011KT 7SM CLR 28/25 A2992 RMK AO2 SLP131 T02830250
KMFE 191253Z 14006KT 5SM BR CLR 27/25 A2991 RMK AO2 SLP127 T02720250
KMFE 191153Z 15007KT 7SM FEW015 27/25 A2991 RMK AO2 SLP125 T02720250 10283 20272 53002
KMFE 191053Z 14008KT 7SM CLR 27/25 A2990 RMK AO2 SLP121 T02720250
KMFE 190953Z AUTO 15007KT 7SM FEW016 28/25 A2989 RMK AO2 SLP121 T02780250
KMFE 190853Z AUTO 15008KT 7SM CLR 28/25 A2990 RMK AO2 SLP121 T02780250 58006
KMFE 190753Z AUTO 13009KT 7SM SCT014 28/25 A2991 RMK AO2 SLP125 T02780250
KMFE 190653Z AUTO 12010KT 8SM CLR 28/25 A2992 RMK AO2 SLP128 T02830250
KMFE 190637Z AUTO 13010KT 8SM SCT014 SCT020 28/25 A2992 RMK AO2 T02830250
KMFE 190553Z AUTO 13010KT 8SM BKN016 28/25 A2992 RMK AO2 SLP128 T02830250 10339 20283 403830272 51004
KMFE 190526Z AUTO 13011KT 8SM BKN016 29/25 A2992 RMK AO2 T02890250
KMFE 190453Z AUTO 13012KT 9SM CLR 29/24 A2991 RMK AO2 SLP128 T02890244
KMFE 190353Z 13012KT 10SM CLR 29/24 A2991 RMK AO2 SLP127 T02940244
KMFE 190253Z 13010KT 10SM CLR 30/23 A2990 RMK AO2 SLP124 T03000233 53016
KMFE 190153Z 14014KT 10SM CLR 31/23 A2989 RMK AO2 SLP118 T03110228
KMFE 190053Z 13015KT 10SM CLR 32/23 A2986 RMK AO2 SLP110 T03220228
KMFE 182353Z 13014G19KT 10SM CLR 34/23 A2986 RMK AO2 SLP108 T03390228 10383 20339 55006
KMFE 182253Z 14015G22KT 10SM CLR 36/22 A2985 RMK AO2 SLP106 T03560222
KMFE 182153Z 15014KT 10SM CLR 36/22 A2987 RMK AO2 SLP112 T03610217
KMFE 182053Z 15013G20KT 10SM CLR 37/22 A2987 RMK AO2 WSHFT 1940 LTG DSNT S SLP113 T03720217 56027
KMFE 182000Z 17009KT 10SM FEW055 FEW090 37/22 A2989 RMK AO2 WSHFT 1940 T03720217
KMFE 181953Z 14010KT 10SM FEW055 SCT090 38/22 A2989 RMK AO2 SLP120 T03780217
KMFE 181853Z 14012KT 10SM FEW060 FEW080 37/23 A2993 RMK AO2 SLP131 T03720228
KMFE 181753Z 14010KT 10SM SCT044 36/22 A2995 RMK AO2 SLP140 T03560222 10361 20272 58008
KMFE 181653Z 17010G16KT 10SM BKN035 35/23 A2997 RMK AO2 SLP148 T03500233
KMFE 181553Z 16011KT 10SM SCT027 32/23 A2998 RMK AO2 SLP151 T03220233
KMFE 181453Z 15010KT 10SM FEW019 SCT025 31/24 A2997 RMK AO2 SLP148 T03110244 51010